Time;durP1;ratioP1;P1;durP2;ratioP2;P2;SDS_P1;SDS_P2;PMS_P1;PMS_P2;Temp;Humidity;BMP_temperature;BMP_pressure;BME280_temperature;BME280_humidity;BME280_pressure;Samples;Min_cycle;Max_cycle;Signal;HPM_P1;HPM_P2
2023/08/25 00:00:48;;;;;;;2.05;1.92;;;;;;;32.06;45.29;98638.59;2084586;28;20049;-54
2023/08/25 00:01:49;;;;;;;2.45;2.22;;;;;;;32.01;45.46;98634.00;2082403;28;20049;-53
2023/08/25 00:02:51;;;;;;;1.92;1.83;;;;;;;32.03;45.10;98629.03;2081357;28;21894;-54
2023/08/25 00:03:52;;;;;;;1.65;1.55;;;;;;;32.03;45.80;98629.03;2082927;28;20080;-53
2023/08/25 00:04:53;;;;;;;2.05;1.85;;;;;;;32.05;45.52;98635.06;2082656;28;20064;-54
2023/08/25 00:05:54;;;;;;;2.42;2.05;;;;;;;32.02;45.81;98634.81;2082825;28;20052;-49
2023/08/25 00:06:56;;;;;;;2.17;1.98;;;;;;;32.02;45.71;98627.41;2084130;28;20045;-54
2023/08/25 00:07:57;;;;;;;2.30;1.90;;;;;;;32.02;45.79;98632.09;2081889;28;20527;-55
2023/08/25 00:09:00;;;;;;;1.70;1.60;;;;;;;32.02;45.29;98627.41;2083199;28;20053;-54
2023/08/25 00:10:01;;;;;;;2.22;2.03;;;;;;;32.01;45.72;98627.69;2079893;28;20077;-54
2023/08/25 00:11:02;;;;;;;2.00;1.90;;;;;;;32.00;45.62;98628.81;2083959;28;20060;-54
2023/08/25 00:12:04;;;;;;;1.90;1.80;;;;;;;31.99;45.72;98630.75;2080093;28;20048;-54
2023/08/25 00:13:06;;;;;;;2.15;2.05;;;;;;;32.00;45.48;98631.56;2084199;28;20045;-54
2023/08/25 00:14:06;;;;;;;2.13;2.03;;;;;;;31.98;45.99;98631.03;2082417;28;20048;-54
2023/08/25 00:15:10;;;;;;;2.05;1.95;;;;;;;32.00;45.46;98628.81;2084204;28;20503;-54
2023/08/25 00:16:10;;;;;;;2.20;2.00;;;;;;;31.99;45.17;98636.22;2081298;28;20125;-54
2023/08/25 00:17:12;;;;;;;2.45;2.22;;;;;;;32.02;45.83;98637.56;2084014;28;20044;-55
2023/08/25 00:18:13;;;;;;;2.10;1.90;;;;;;;32.04;45.63;98636.16;2079733;28;20052;-55
2023/08/25 00:19:17;;;;;;;1.95;1.85;;;;;;;32.05;45.37;98631.50;2083241;28;20400;-54
2023/08/25 00:20:18;;;;;;;2.30;2.13;;;;;;;32.02;45.91;98638.38;2082441;28;20049;-54
2023/08/25 00:21:20;;;;;;;2.00;1.80;;;;;;;32.03;45.74;98639.19;2085546;28;20044;-52
2023/08/25 00:22:21;;;;;;;1.67;1.58;;;;;;;32.01;45.52;98638.66;2084266;28;20180;-54
2023/08/25 00:23:23;;;;;;;2.35;2.15;;;;;;;32.00;45.79;98645.25;2088026;28;20049;-53
2023/08/25 00:24:25;;;;;;;2.30;2.10;;;;;;;32.02;45.30;98634.81;2084325;28;20045;-53
2023/08/25 00:25:27;;;;;;;1.88;1.77;;;;;;;32.03;45.79;98641.94;2086374;28;20045;-54
2023/08/25 00:26:28;;;;;;;2.05;1.83;;;;;;;32.03;45.23;98636.44;2085477;28;20140;-54
2023/08/25 00:27:30;;;;;;;1.85;1.75;;;;;;;32.04;45.26;98636.16;2086243;28;20068;-53
2023/08/25 00:28:31;;;;;;;2.00;1.90;;;;;;;32.01;45.79;98641.41;2085659;28;20526;-54
2023/08/25 00:29:32;;;;;;;2.33;2.13;;;;;;;32.02;45.77;98632.91;2084406;28;20085;-52
2023/08/25 00:30:33;;;;;;;2.40;2.20;;;;;;;32.03;45.63;98636.44;2087268;28;20060;-50
2023/08/25 00:31:35;;;;;;;1.92;1.80;;;;;;;32.00;45.42;98632.34;2086870;28;20047;-54
2023/08/25 00:32:36;;;;;;;2.17;1.77;;;;;;;31.99;45.35;98635.41;2082651;28;20294;-53
2023/08/25 00:33:48;;;;;;;2.58;2.15;;;;;;;31.98;45.80;98636.50;2084883;28;20419;-54
2023/08/25 00:34:48;;;;;;;2.10;1.95;;;;;;;32.01;45.39;98635.91;2084052;28;20071;-54
2023/08/25 00:35:50;;;;;;;1.98;1.88;;;;;;;32.03;45.24;98633.72;2078025;28;20049;-53
2023/08/25 00:36:51;;;;;;;1.98;1.88;;;;;;;32.02;45.79;98634.81;2087526;28;20088;-51
2023/08/25 00:37:53;;;;;;;1.80;1.70;;;;;;;32.02;45.23;98626.59;2084274;28;20120;-54
2023/08/25 00:38:54;;;;;;;2.63;2.30;;;;;;;32.00;45.05;98623.31;2074850;28;20117;-54
2023/08/25 00:39:57;;;;;;;2.35;2.15;;;;;;;31.99;45.74;98629.94;2079878;28;20049;-54
2023/08/25 00:40:58;;;;;;;2.28;2.05;;;;;;;31.99;45.76;98628.00;2080988;28;20088;-52
2023/08/25 00:42:00;;;;;;;2.17;2.00;;;;;;;32.00;45.37;98624.13;2075829;28;20049;-54
2023/08/25 00:43:00;;;;;;;1.85;1.75;;;;;;;31.98;45.09;98620.03;2078350;28;20056;-54
2023/08/25 00:44:03;;;;;;;1.88;1.60;;;;;;;31.98;45.47;98620.03;2087832;28;20052;-49
2023/08/25 00:45:05;;;;;;;2.03;1.92;;;;;;;31.98;45.42;98620.03;2086645;28;20547;-50
2023/08/25 00:46:08;;;;;;;2.45;1.98;;;;;;;31.96;45.96;98616.81;2085927;28;20104;-51
2023/08/25 00:47:09;;;;;;;2.30;2.10;;;;;;;31.96;45.44;98608.56;2084645;28;20343;-55
2023/08/25 00:48:11;;;;;;;2.03;1.92;;;;;;;31.97;45.32;98618.41;2084364;28;20543;-51
2023/08/25 00:49:13;;;;;;;1.77;1.67;;;;;;;31.98;46.04;98609.06;2084592;28;20063;-51
2023/08/25 00:50:15;;;;;;;2.15;1.95;;;;;;;31.95;46.10;98615.16;2083072;28;20111;-50
2023/08/25 00:51:17;;;;;;;2.58;2.38;;;;;;;31.95;45.96;98612.41;2081005;28;20045;-53
2023/08/25 00:52:20;;;;;;;2.47;2.28;;;;;;;31.95;45.76;98615.16;2085448;28;20352;-50
2023/08/25 00:53:22;;;;;;;1.98;1.88;;;;;;;31.96;45.83;98616.81;2085933;28;20083;-53
2023/08/25 00:54:26;;;;;;;2.30;2.13;;;;;;;31.96;45.43;98617.63;2086535;28;20049;-51
2023/08/25 00:55:30;;;;;;;2.28;2.03;;;;;;;31.98;45.49;98617.31;2087123;28;20060;-53
2023/08/25 00:56:32;;;;;;;2.13;1.98;;;;;;;31.97;45.60;98618.41;2085569;28;20045;-49
2023/08/25 00:57:34;;;;;;;2.53;2.33;;;;;;;31.95;45.48;98612.41;2084271;28;20059;-54
2023/08/25 00:58:35;;;;;;;2.03;1.92;;;;;;;31.95;45.91;98620.63;2089406;28;20063;-50
2023/08/25 00:59:37;;;;;;;2.28;2.08;;;;;;;31.98;45.32;98611.81;2086587;28;20199;-53
2023/08/25 01:00:39;;;;;;;2.30;2.10;;;;;;;31.95;45.45;98620.63;2086360;28;20048;-51
2023/08/25 01:01:40;;;;;;;2.28;2.10;;;;;;;31.98;45.87;98614.56;2085548;28;20052;-52
2023/08/25 01:02:42;;;;;;;1.98;1.88;;;;;;;31.97;45.82;98612.94;2083857;28;20056;-59
2023/08/25 01:03:48;;;;;;;2.50;2.30;;;;;;;31.99;45.84;98611.53;2083718;28;20507;-53
2023/08/25 01:04:50;;;;;;;2.47;2.28;;;;;;;31.98;45.80;98617.31;2084685;28;20467;-50
2023/08/25 01:05:51;;;;;;;2.10;1.90;;;;;;;31.99;45.76;98614.28;2087119;28;20041;-51
2023/08/25 01:06:54;;;;;;;2.50;2.30;;;;;;;31.97;45.88;98612.94;2084328;28;20052;-54
2023/08/25 01:07:56;;;;;;;2.20;2.00;;;;;;;31.95;45.47;98610.47;2086316;28;20041;-51
2023/08/25 01:08:59;;;;;;;2.00;1.90;;;;;;;31.95;45.64;98613.22;2086394;28;20041;-49
2023/08/25 01:09:59;;;;;;;2.92;2.30;;;;;;;31.94;45.86;98613.53;2086872;28;20057;-54
2023/08/25 01:11:14;;;;;;;2.00;1.90;;;;;;;31.96;45.72;98614.06;2084767;28;20045;-53
2023/08/25 01:12:27;;;;;;;3.20;1.95;;;;;;;31.95;45.36;98615.97;2086703;28;20553;-50
2023/08/25 01:13:38;;;;;;;2.22;2.03;;;;;;;31.95;45.64;98615.16;2080891;28;20140;-53
2023/08/25 01:14:50;;;;;;;2.67;2.47;;;;;;;31.91;46.09;98608.59;2086726;28;20524;-50
2023/08/25 01:15:55;;;;;;;2.13;2.00;;;;;;;31.93;45.83;98612.72;2082738;28;20052;-54
2023/08/25 01:17:02;;;;;;;2.97;2.00;;;;;;;31.93;46.01;98606.38;2084072;28;20095;-49
2023/08/25 01:18:13;;;;;;;2.15;1.95;;;;;;;31.93;45.76;98607.22;2087218;28;20051;-53
2023/08/25 01:19:41;;;;;;;1.75;1.50;;;;;;;31.92;46.04;98607.50;2083212;28;20047;-51
2023/08/25 01:20:48;;;;;;;2.03;1.88;;;;;;;31.92;45.59;98610.25;2076082;28;20553;-54
2023/08/25 01:21:52;;;;;;;2.25;2.08;;;;;;;31.91;45.68;98612.19;2074314;28;20514;-52
2023/08/25 01:23:04;;;;;;;2.30;2.20;;;;;;;31.94;45.78;98613.53;2075705;28;20420;-54
2023/08/25 01:24:12;;;;;;;2.17;1.98;;;;;;;31.93;45.87;98611.88;2075694;28;20319;-54
2023/08/25 01:25:23;;;;;;;2.50;2.30;;;;;;;31.90;45.65;98615.16;2075340;28;20057;-53
2023/08/25 01:26:25;;;;;;;2.50;2.30;;;;;;;31.92;45.51;98616.53;2076022;28;20061;-52
2023/08/25 01:27:27;;;;;;;2.50;2.30;;;;;;;31.92;45.43;98619.28;2074267;28;20062;-51
2023/08/25 01:28:28;;;;;;;1.70;1.60;;;;;;;31.93;46.03;98620.09;2079317;28;20050;-54
2023/08/25 01:29:30;;;;;;;2.28;2.08;;;;;;;31.93;45.48;98618.19;2079707;28;20107;-54
2023/08/25 01:30:33;;;;;;;1.92;1.83;;;;;;;31.94;45.71;98613.53;2079323;28;20066;-54
2023/08/25 01:31:34;;;;;;;2.25;2.03;;;;;;;31.94;46.07;98624.50;2076370;28;20411;-53
2023/08/25 01:32:37;;;;;;;2.17;1.98;;;;;;;31.94;45.57;98619.00;2078568;28;20064;-53
2023/08/25 01:33:39;;;;;;;2.40;2.20;;;;;;;31.93;45.96;98617.34;2077170;28;20103;-53
2023/08/25 01:34:40;;;;;;;2.28;2.08;;;;;;;31.94;45.55;98625.31;2079115;28;20041;-51
2023/08/25 01:35:51;;;;;;;2.60;2.40;;;;;;;31.92;46.00;98624.78;2076672;28;20462;-55
2023/08/25 01:37:03;;;;;;;2.00;1.90;;;;;;;31.92;45.40;98624.78;2074748;28;20050;-54
2023/08/25 01:38:12;;;;;;;1.92;1.77;;;;;;;31.92;45.56;98626.72;2077634;28;20057;-50
2023/08/25 01:39:15;;;;;;;2.00;1.90;;;;;;;31.93;45.56;98617.34;2079061;28;20067;-51
2023/08/25 01:40:22;;;;;;;2.47;2.28;;;;;;;31.91;45.55;98628.63;2077945;28;20445;-53
2023/08/25 01:41:28;;;;;;;2.33;2.13;;;;;;;31.93;46.08;98622.84;2080504;28;20045;-51
2023/08/25 01:42:32;;;;;;;2.33;1.92;;;;;;;31.92;45.57;98616.53;2080853;28;20327;-51
2023/08/25 01:43:41;;;;;;;2.53;2.33;;;;;;;31.94;45.41;98619.81;2078465;28;20084;-52
2023/08/25 01:44:44;;;;;;;2.03;1.92;;;;;;;31.93;46.03;98622.84;2079364;28;20378;-54
2023/08/25 01:45:48;;;;;;;2.13;1.92;;;;;;;31.93;45.85;98622.84;2078324;28;20057;-53
2023/08/25 01:46:54;;;;;;;2.72;2.53;;;;;;;31.95;45.88;98626.13;2079939;28;20046;-54
2023/08/25 01:47:57;;;;;;;1.90;1.80;;;;;;;31.93;45.71;98629.16;2079923;28;20049;-53
2023/08/25 01:49:00;;;;;;;1.92;1.80;;;;;;;31.94;45.88;98624.50;2078599;28;20072;-51
2023/08/25 01:50:02;;;;;;;2.28;2.08;;;;;;;31.92;45.83;98622.03;2079310;28;20508;-50
2023/08/25 01:51:04;;;;;;;2.00;1.90;;;;;;;31.91;45.71;98620.41;2077432;28;20054;-54
2023/08/25 01:52:07;;;;;;;2.50;2.25;;;;;;;31.90;45.64;98623.41;2078319;28;20072;-50
2023/08/25 01:53:09;;;;;;;1.70;1.60;;;;;;;31.93;45.29;98623.69;2076412;28;20045;-51
2023/08/25 01:54:13;;;;;;;2.40;2.20;;;;;;;31.94;45.46;98616.25;2080090;28;20056;-53
2023/08/25 01:55:15;;;;;;;2.13;1.92;;;;;;;31.93;45.92;98620.09;2079789;28;20064;-50
2023/08/25 01:56:17;;;;;;;1.92;1.83;;;;;;;31.96;45.82;98627.78;2081599;28;20283;-52
2023/08/25 01:57:19;;;;;;;2.28;2.17;;;;;;;31.94;45.56;98624.50;2078537;28;20132;-51
2023/08/25 01:58:20;;;;;;;2.20;2.03;;;;;;;31.95;45.84;98628.84;2079312;28;20053;-53
2023/08/25 01:59:22;;;;;;;2.00;1.90;;;;;;;31.95;45.92;98632.41;2078557;28;20106;-52
2023/08/25 02:00:23;;;;;;;1.98;1.88;;;;;;;31.93;45.71;98634.66;2081048;28;20444;-53
2023/08/25 02:01:25;;;;;;;2.72;2.45;;;;;;;31.94;45.84;98635.47;2078770;28;20050;-50
2023/08/25 02:02:26;;;;;;;1.92;1.83;;;;;;;31.94;45.93;98638.22;2080193;28;20042;-54
2023/08/25 02:03:28;;;;;;;2.35;2.15;;;;;;;31.92;45.42;98641.22;2077927;28;20052;-53
2023/08/25 02:04:29;;;;;;;2.38;2.17;;;;;;;31.93;45.62;98642.03;2080478;28;20045;-52
2023/08/25 02:05:31;;;;;;;2.08;1.92;;;;;;;31.93;45.31;98631.06;2079121;28;20076;-52
2023/08/25 02:06:32;;;;;;;2.55;1.80;;;;;;;31.92;45.29;98638.50;2077951;28;20057;-52
2023/08/25 02:07:34;;;;;;;2.67;2.20;;;;;;;31.91;45.98;98633.28;2077240;28;20542;-53
2023/08/25 02:08:34;;;;;;;3.08;2.38;;;;;;;31.90;45.87;98635.22;2079315;28;20072;-53
2023/08/25 02:09:36;;;;;;;2.65;2.45;;;;;;;31.90;45.53;98631.63;2079633;28;20045;-52
2023/08/25 02:10:37;;;;;;;2.17;2.08;;;;;;;31.92;45.94;98616.53;2080691;28;20052;-52
2023/08/25 02:11:40;;;;;;;3.47;2.33;;;;;;;31.95;45.31;98626.13;2078012;28;20065;-52
2023/08/25 02:12:41;;;;;;;2.25;2.05;;;;;;;31.92;45.94;98624.78;2080435;28;20061;-60
2023/08/25 02:13:43;;;;;;;2.33;2.13;;;;;;;31.91;45.51;98625.06;2078207;28;20204;-52
2023/08/25 02:14:44;;;;;;;2.00;1.90;;;;;;;31.90;45.35;98620.66;2079356;28;20522;-52
2023/08/25 02:15:46;;;;;;;2.72;1.88;;;;;;;31.89;45.51;98619.03;2077814;28;20053;-50
2023/08/25 02:16:47;;;;;;;2.85;2.65;;;;;;;31.88;45.82;98614.66;2080043;28;20049;-54
2023/08/25 02:17:49;;;;;;;2.58;2.17;;;;;;;31.87;45.71;98610.28;2077858;28;20472;-54
2023/08/25 02:18:50;;;;;;;2.60;2.40;;;;;;;31.89;45.62;98616.28;2080298;28;20053;-53
2023/08/25 02:19:51;;;;;;;2.40;2.20;;;;;;;31.88;45.98;98614.66;2079151;28;20046;-52
2023/08/25 02:20:54;;;;;;;2.00;1.90;;;;;;;31.90;45.93;98612.44;2079683;28;20554;-54
2023/08/25 02:21:56;;;;;;;2.50;2.30;;;;;;;31.90;45.66;98616.00;2078001;28;20050;-53
2023/08/25 02:22:57;;;;;;;1.77;1.67;;;;;;;31.91;45.87;98614.09;2078206;28;20451;-54
2023/08/25 02:23:59;;;;;;;2.30;2.10;;;;;;;31.88;45.99;98618.22;2078226;28;20057;-55
2023/08/25 02:25:00;;;;;;;2.78;2.45;;;;;;;31.89;45.92;98616.28;2078249;28;20095;-52
2023/08/25 02:26:02;;;;;;;2.45;2.30;;;;;;;31.91;45.44;98614.09;2077876;28;22087;-54
2023/08/25 02:27:04;;;;;;;2.03;1.90;;;;;;;31.91;45.94;98616.81;2080043;28;20109;-52
2023/08/25 02:28:05;;;;;;;2.35;2.25;;;;;;;31.89;45.54;98613.56;2082430;28;20202;-53
2023/08/25 02:29:07;;;;;;;2.63;2.42;;;;;;;31.86;45.70;98612.19;2087224;28;20044;-54
2023/08/25 02:30:10;;;;;;;2.13;1.92;;;;;;;31.88;45.55;98611.94;2084779;28;20153;-54
2023/08/25 02:31:12;;;;;;;1.98;1.88;;;;;;;31.90;45.66;98609.69;2074627;28;20053;-54
2023/08/25 02:32:12;;;;;;;2.03;1.92;;;;;;;31.89;45.41;98617.09;2079945;28;20076;-50
2023/08/25 02:33:15;;;;;;;2.50;2.30;;;;;;;31.88;45.45;98620.16;2083449;28;20051;-51
2023/08/25 02:34:16;;;;;;;2.17;1.98;;;;;;;31.89;45.33;98611.63;2079712;28;20041;-53
2023/08/25 02:35:17;;;;;;;2.53;2.33;;;;;;;31.89;45.63;98616.28;2074977;28;20041;-52
2023/08/25 02:36:19;;;;;;;3.20;2.72;;;;;;;31.87;46.01;98618.50;2076702;28;20065;-49
2023/08/25 02:37:19;;;;;;;2.28;2.17;;;;;;;31.87;45.85;98613.00;2074970;28;21450;-50
2023/08/25 02:38:21;;;;;;;2.30;2.10;;;;;;;31.88;45.58;98625.63;2075846;28;20067;-54
2023/08/25 02:39:22;;;;;;;2.35;2.15;;;;;;;31.90;45.96;98624.25;2075366;28;20262;-53
2023/08/25 02:40:24;;;;;;;2.28;2.10;;;;;;;31.90;45.92;98615.16;2074976;28;20052;-50
2023/08/25 02:41:25;;;;;;;2.63;2.42;;;;;;;31.91;45.37;98622.31;2072426;28;20053;-54
2023/08/25 02:42:28;;;;;;;2.10;1.90;;;;;;;31.90;45.60;98616.00;2074671;28;20065;-50
2023/08/25 02:43:29;;;;;;;2.30;2.10;;;;;;;31.87;45.80;98619.31;2072798;28;21475;-52
2023/08/25 02:44:31;;;;;;;2.72;1.92;;;;;;;31.87;45.62;98624.78;2077640;28;20431;-52
2023/08/25 02:45:32;;;;;;;2.35;2.15;;;;;;;31.89;45.48;98610.81;2074952;28;20045;-50
2023/08/25 02:46:34;;;;;;;3.13;1.90;;;;;;;31.89;45.75;98611.63;2076198;28;20064;-52
2023/08/25 02:47:35;;;;;;;2.15;1.95;;;;;;;31.89;45.52;98616.28;2075793;28;20060;-51
2023/08/25 02:48:36;;;;;;;2.30;2.10;;;;;;;31.90;45.61;98612.44;2077314;28;20060;-50
2023/08/25 02:49:38;;;;;;;2.13;1.92;;;;;;;31.89;45.62;98621.78;2074038;28;20052;-51
2023/08/25 02:50:40;;;;;;;2.92;2.67;;;;;;;31.90;45.73;98616.00;2075328;28;20143;-51
2023/08/25 02:51:40;;;;;;;2.47;2.28;;;;;;;31.89;45.96;98608.06;2074839;28;20095;-49
2023/08/25 02:52:42;;;;;;;2.38;2.20;;;;;;;31.86;45.51;98603.16;2074592;28;20056;-57
2023/08/25 02:53:43;;;;;;;2.25;2.05;;;;;;;31.83;45.99;98607.31;2075237;28;20065;-52
2023/08/25 02:54:45;;;;;;;2.95;2.65;;;;;;;31.86;45.82;98616.88;2076315;28;20049;-54
2023/08/25 02:55:46;;;;;;;2.35;1.73;;;;;;;31.86;45.40;98616.88;2073739;28;20057;-53
2023/08/25 02:56:48;;;;;;;2.53;2.33;;;;;;;31.86;45.54;98609.47;2074491;28;20389;-51
2023/08/25 02:57:51;;;;;;;2.20;2.00;;;;;;;31.86;45.60;98612.19;2071917;28;20057;-52
2023/08/25 02:58:52;;;;;;;2.20;2.00;;;;;;;31.84;45.51;98614.41;2076015;28;20398;-53
2023/08/25 02:59:53;;;;;;;2.15;2.03;;;;;;;31.83;45.61;98613.59;2076507;28;20053;-50
2023/08/25 03:00:55;;;;;;;2.60;2.40;;;;;;;31.83;45.41;98616.34;2072236;28;20067;-53
2023/08/25 03:01:56;;;;;;;3.55;2.30;;;;;;;31.83;45.68;98619.09;2075540;28;20207;-55
2023/08/25 03:02:57;;;;;;;1.90;1.80;;;;;;;31.85;46.10;98618.81;2075765;28;20045;-52
2023/08/25 03:03:58;;;;;;;2.22;1.98;;;;;;;31.87;45.90;98615.75;2075465;28;20204;-51
2023/08/25 03:05:00;;;;;;;2.80;2.60;;;;;;;31.83;46.17;98613.59;2077080;28;20045;-52
2023/08/25 03:06:01;;;;;;;2.80;2.60;;;;;;;31.85;45.55;98615.25;2072401;28;20069;-52
2023/08/25 03:07:03;;;;;;;2.35;2.15;;;;;;;31.86;45.83;98614.13;2076273;28;20508;-52
2023/08/25 03:08:07;;;;;;;2.40;2.20;;;;;;;31.83;45.69;98605.38;2074815;28;20084;-54
2023/08/25 03:09:08;;;;;;;2.53;2.33;;;;;;;31.81;45.66;98604.84;2075171;28;20504;-50
2023/08/25 03:10:10;;;;;;;2.30;2.10;;;;;;;31.82;45.67;98603.75;2076001;28;20052;-53
2023/08/25 03:11:12;;;;;;;2.28;2.13;;;;;;;31.83;46.12;98604.56;2076587;28;20052;-50
2023/08/25 03:12:13;;;;;;;2.10;1.90;;;;;;;31.83;45.58;98604.56;2074912;28;20124;-51
2023/08/25 03:13:16;;;;;;;2.47;2.30;;;;;;;31.83;46.12;98601.81;2073189;28;20038;-54
2023/08/25 03:14:18;;;;;;;2.53;2.33;;;;;;;31.82;46.27;98594.72;2072436;28;20065;-54
2023/08/25 03:15:20;;;;;;;2.33;2.13;;;;;;;31.81;46.00;98599.34;2074735;28;20066;-50
2023/08/25 03:16:21;;;;;;;2.30;2.20;;;;;;;31.82;45.80;98605.69;2075055;28;20508;-54
2023/08/25 03:17:23;;;;;;;2.38;2.17;;;;;;;31.81;46.02;98599.34;2075747;28;20115;-51
2023/08/25 03:18:24;;;;;;;2.20;2.00;;;;;;;31.81;46.11;98604.84;2076464;28;20045;-55
2023/08/25 03:19:25;;;;;;;2.72;2.53;;;;;;;31.81;45.69;98602.09;2075059;28;20132;-54
2023/08/25 03:20:26;;;;;;;2.58;2.38;;;;;;;31.82;45.52;98601.00;2075350;28;20049;-50
2023/08/25 03:21:28;;;;;;;2.13;2.00;;;;;;;31.82;45.64;98601.00;2075025;28;20107;-51
2023/08/25 03:22:29;;;;;;;2.50;2.22;;;;;;;31.81;46.01;98599.34;2074137;28;20098;-50
2023/08/25 03:23:31;;;;;;;2.80;2.45;;;;;;;31.82;45.70;98601.00;2073792;28;20385;-52
2023/08/25 03:24:32;;;;;;;2.97;2.45;;;;;;;31.80;46.02;98594.19;2081330;28;20128;-51
2023/08/25 03:25:38;;;;;;;2.15;1.95;;;;;;;31.80;45.97;98597.72;2082487;28;20527;-50
2023/08/25 03:26:39;;;;;;;1.80;1.70;;;;;;;31.80;45.70;98602.41;2082304;28;20119;-52
2023/08/25 03:27:40;;;;;;;2.70;2.50;;;;;;;31.80;46.19;98597.72;2081367;28;20073;-49
2023/08/25 03:28:43;;;;;;;2.60;2.40;;;;;;;31.83;46.16;98601.81;2081736;28;20096;-56
2023/08/25 03:29:45;;;;;;;2.22;2.03;;;;;;;31.80;45.73;98603.22;2080870;28;20048;-51
2023/08/25 03:30:50;;;;;;;2.60;2.40;;;;;;;31.81;45.62;98602.09;2073684;28;20096;-50
2023/08/25 03:31:52;;;;;;;2.25;2.05;;;;;;;31.79;45.80;98603.53;2074030;28;20049;-49
2023/08/25 03:32:53;;;;;;;2.50;2.30;;;;;;;31.80;46.04;98603.22;2073636;28;20801;-56
2023/08/25 03:33:55;;;;;;;2.72;2.53;;;;;;;31.79;45.75;98607.09;2075301;28;20052;-51
2023/08/25 03:34:56;;;;;;;2.58;2.38;;;;;;;31.81;45.96;98607.59;2076564;28;20052;-49
2023/08/25 03:35:58;;;;;;;2.30;2.10;;;;;;;31.81;45.56;98604.03;2073937;28;20046;-50
2023/08/25 03:36:59;;;;;;;2.50;2.28;;;;;;;31.80;46.10;98602.41;2076327;28;20061;-52
2023/08/25 03:38:01;;;;;;;2.17;2.08;;;;;;;31.80;45.94;98608.69;2076225;28;20124;-53
2023/08/25 03:39:01;;;;;;;2.15;2.03;;;;;;;31.81;46.05;98604.84;2075546;28;20523;-53
2023/08/25 03:40:04;;;;;;;2.35;2.15;;;;;;;31.81;46.07;98604.03;2076433;28;20045;-52
2023/08/25 03:41:05;;;;;;;1.92;1.83;;;;;;;31.80;45.68;98599.66;2075889;28;20124;-49
2023/08/25 03:42:07;;;;;;;2.97;2.63;;;;;;;31.80;46.06;98603.22;2073068;28;20076;-53
2023/08/25 03:43:08;;;;;;;2.78;2.58;;;;;;;31.80;46.17;98602.41;2077233;28;20083;-54
2023/08/25 03:44:11;;;;;;;3.13;2.60;;;;;;;31.81;45.64;98607.59;2073965;28;20056;-54
2023/08/25 03:45:12;;;;;;;3.20;2.72;;;;;;;31.79;46.02;98596.13;2075182;28;20600;-57
2023/08/25 03:46:14;;;;;;;2.40;2.20;;;;;;;31.81;45.66;98599.34;2072524;28;20060;-52
2023/08/25 03:47:14;;;;;;;2.55;2.35;;;;;;;31.79;45.96;98601.59;2072705;28;20595;-55
2023/08/25 03:48:16;;;;;;;2.28;2.15;;;;;;;31.80;46.12;98602.41;2074887;28;20049;-50
2023/08/25 03:49:17;;;;;;;2.83;2.63;;;;;;;31.79;45.56;98609.81;2075271;28;20048;-55
2023/08/25 03:50:20;;;;;;;2.50;2.30;;;;;;;31.79;45.67;98611.75;2076677;28;20505;-53
2023/08/25 03:51:21;;;;;;;2.40;2.20;;;;;;;31.78;45.83;98610.91;2072924;28;20048;-51
2023/08/25 03:52:23;;;;;;;2.50;2.30;;;;;;;31.78;46.03;98599.94;2075321;28;20136;-53
2023/08/25 03:53:23;;;;;;;3.10;2.30;;;;;;;31.78;45.80;98610.09;2075804;28;20114;-54
2023/08/25 03:54:27;;;;;;;2.75;2.47;;;;;;;31.78;45.94;98604.63;2075738;28;20045;-56
2023/08/25 03:55:28;;;;;;;2.70;2.45;;;;;;;31.77;45.96;98606.53;2074249;28;20058;-52
2023/08/25 03:56:30;;;;;;;2.58;2.25;;;;;;;31.76;46.16;98607.66;2069984;28;20049;-57
2023/08/25 03:57:31;;;;;;;2.22;2.08;;;;;;;31.78;45.72;98601.88;2070479;28;20412;-55
2023/08/25 03:58:33;;;;;;;2.60;2.25;;;;;;;31.77;46.04;98595.56;2075457;28;20065;-49
2023/08/25 03:59:35;;;;;;;2.60;2.40;;;;;;;31.77;45.74;98598.31;2080956;28;20171;-50
2023/08/25 04:00:37;;;;;;;1.95;1.85;;;;;;;31.78;46.15;98599.13;2082745;28;20044;-50
2023/08/25 04:01:38;;;;;;;2.20;2.10;;;;;;;31.77;45.82;98603.00;2081009;28;20508;-50
2023/08/25 04:02:40;;;;;;;2.50;2.30;;;;;;;31.76;45.98;98593.97;2083775;28;20211;-54
2023/08/25 04:03:41;;;;;;;2.38;2.17;;;;;;;31.76;46.18;98602.19;2076078;28;20072;-54
2023/08/25 04:04:43;;;;;;;3.55;3.25;;;;;;;31.77;45.74;98601.06;2078068;28;21825;-54
2023/08/25 04:05:43;;;;;;;2.70;2.50;;;;;;;31.77;45.93;98597.50;2086680;28;20499;-54
2023/08/25 04:06:45;;;;;;;3.75;2.30;;;;;;;31.78;46.06;98596.38;2087180;28;20137;-52
2023/08/25 04:07:46;;;;;;;2.38;2.17;;;;;;;31.78;45.61;98590.91;2086367;28;20057;-52
2023/08/25 04:08:48;;;;;;;2.60;2.40;;;;;;;31.76;45.63;98595.84;2087668;28;20508;-50
2023/08/25 04:09:48;;;;;;;2.78;2.58;;;;;;;31.75;45.95;98589.56;2086755;28;20056;-50
2023/08/25 04:10:50;;;;;;;2.47;2.25;;;;;;;31.76;46.29;98596.69;2088179;28;20037;-53
2023/08/25 04:11:53;;;;;;;2.90;2.70;;;;;;;31.76;45.63;98591.22;2087420;28;20088;-54
2023/08/25 04:12:54;;;;;;;4.20;2.45;;;;;;;31.75;46.03;98597.78;2084498;28;20059;-53
2023/08/25 04:13:55;;;;;;;2.47;2.28;;;;;;;31.75;45.75;98595.03;2084139;28;20064;-54
2023/08/25 04:14:58;;;;;;;2.38;2.25;;;;;;;31.76;46.09;98596.69;2086213;28;20056;-52
2023/08/25 04:16:01;;;;;;;2.67;2.47;;;;;;;31.76;45.69;98599.44;2087387;28;20103;-53
2023/08/25 04:17:04;;;;;;;2.42;2.22;;;;;;;31.77;45.69;98603.00;2085314;28;20416;-49
2023/08/25 04:18:05;;;;;;;2.03;1.92;;;;;;;31.76;45.50;98604.94;2073875;28;20073;-53
2023/08/25 04:19:07;;;;;;;2.15;1.98;;;;;;;31.75;46.08;98610.69;2077992;28;20061;-55
2023/08/25 04:20:10;;;;;;;2.50;2.30;;;;;;;31.77;45.77;98608.47;2083578;28;20072;-52
2023/08/25 04:21:11;;;;;;;2.20;2.00;;;;;;;31.76;45.90;98602.19;2083955;28;20048;-51
2023/08/25 04:22:12;;;;;;;2.90;2.70;;;;;;;31.78;45.55;98610.09;2083631;28;20440;-53
2023/08/25 04:23:15;;;;;;;1.90;1.80;;;;;;;31.75;46.18;98606.00;2084424;28;20049;-53
2023/08/25 04:24:17;;;;;;;3.38;2.38;;;;;;;31.75;45.97;98599.72;2077554;28;20060;-51
2023/08/25 04:25:19;;;;;;;2.50;2.30;;;;;;;31.74;45.97;98609.88;2074724;28;20060;-55
2023/08/25 04:26:20;;;;;;;2.60;2.40;;;;;;;31.73;46.11;98602.78;2074093;28;20041;-56
2023/08/25 04:27:21;;;;;;;2.78;2.58;;;;;;;31.74;45.90;98601.66;2080651;28;20061;-53
2023/08/25 04:28:24;;;;;;;3.28;2.97;;;;;;;31.75;46.11;98605.19;2082236;28;20511;-56
2023/08/25 04:29:25;;;;;;;2.83;2.40;;;;;;;31.75;45.69;98603.28;2084382;28;20068;-52
2023/08/25 04:30:27;;;;;;;2.47;2.28;;;;;;;31.76;46.07;98607.66;2082411;28;20128;-53
2023/08/25 04:31:28;;;;;;;2.35;2.15;;;;;;;31.74;45.69;98603.59;2080199;28;20129;-56
2023/08/25 04:32:29;;;;;;;2.78;2.58;;;;;;;31.74;45.85;98596.16;2081965;28;20068;-53
2023/08/25 04:33:31;;;;;;;2.92;2.72;;;;;;;31.75;46.21;98610.69;2080044;28;20408;-55
2023/08/25 04:34:32;;;;;;;2.85;2.53;;;;;;;31.75;46.23;98599.72;2080656;28;20052;-53
2023/08/25 04:35:35;;;;;;;2.72;2.53;;;;;;;31.74;46.04;98612.63;2081315;28;20053;-54
2023/08/25 04:36:37;;;;;;;3.20;2.88;;;;;;;31.75;45.67;98610.69;2084403;28;20044;-53
2023/08/25 04:37:38;;;;;;;3.30;3.00;;;;;;;31.74;45.75;98609.88;2083111;28;20099;-51
2023/08/25 04:38:39;;;;;;;2.17;1.98;;;;;;;31.74;45.64;98609.88;2084715;28;20075;-53
2023/08/25 04:39:41;;;;;;;2.65;2.45;;;;;;;31.75;45.82;98608.75;2080920;28;20045;-53
2023/08/25 04:40:42;;;;;;;2.75;2.55;;;;;;;31.76;46.05;98615.06;2085624;28;20084;-52
2023/08/25 04:41:44;;;;;;;2.63;2.42;;;;;;;31.74;45.93;98614.53;2080278;28;20317;-54
2023/08/25 04:42:45;;;;;;;2.75;2.55;;;;;;;31.74;45.66;98604.41;2083225;28;20041;-53
2023/08/25 04:43:47;;;;;;;3.55;2.30;;;;;;;31.74;45.70;98615.34;2081624;28;20267;-52
2023/08/25 04:44:48;;;;;;;2.55;2.00;;;;;;;31.72;45.65;98620.31;2084046;28;20064;-51
2023/08/25 04:45:51;;;;;;;2.20;2.00;;;;;;;31.73;46.18;98612.91;2082135;28;20049;-55
2023/08/25 04:46:52;;;;;;;3.38;3.08;;;;;;;31.73;45.69;98619.22;2083842;28;20488;-54
2023/08/25 04:47:54;;;;;;;2.88;2.67;;;;;;;31.73;45.75;98618.38;2079219;28;20053;-56
2023/08/25 04:48:55;;;;;;;2.70;2.50;;;;;;;31.74;46.19;98614.53;2083092;28;20084;-55
2023/08/25 04:49:57;;;;;;;2.88;2.67;;;;;;;31.73;46.05;98615.63;2080047;28;20060;-53
2023/08/25 04:50:59;;;;;;;2.90;2.63;;;;;;;31.73;46.08;98621.97;2082454;28;20049;-56
2023/08/25 04:52:00;;;;;;;2.53;2.33;;;;;;;31.74;46.12;98623.59;2082917;28;20049;-57
2023/08/25 04:53:02;;;;;;;2.10;1.90;;;;;;;31.74;45.57;98622.78;2082835;28;20048;-51
2023/08/25 04:54:03;;;;;;;3.28;2.70;;;;;;;31.73;45.67;98618.38;2082732;28;20079;-49